CSS118 ZKPY-ZBAA
Flight info
| Callsign | CSS118 |
|---|---|
| Flight time | N/A |
| Altitude | 36100 |
| Route | JON11D JONJU L683 YOMJU A575 GOLOT A345 BIDIB A575 UKDUM W49 OSUBA OSUBA7X |
| Aircraft | B733/M-SDE2E3FHIRW/S |
Departure
| Time | 2026-04-24 13:49 |
|---|---|
| Airport | Pyongyang Sunan International Airport (ZKPY) |
Arrival
| Time | N/A |
|---|---|
| Airport | Beijing Capital International Airport (ZBAA) |
| Time | Latitude | Longitude | Altitude | Speed | Heading |
|---|---|---|---|---|---|
| 2026-04-24 13:28 | 39.19999 | 125.67587 | 99 ft | 0 kts | 72° |
| 2026-04-24 13:41 | 39.19999 | 125.67586 | 99 ft | 0 kts | 72° |
| 2026-04-24 13:41 | 39.19996 | 125.67574 | 98 ft | 2 kts | 72° |
| 2026-04-24 13:42 | 39.19991 | 125.67557 | 98 ft | 0 kts | 72° |
| 2026-04-24 13:42 | 39.19990 | 125.67550 | 98 ft | 2 kts | 69° |
| 2026-04-24 13:42 | 39.19979 | 125.67532 | 97 ft | 2 kts | 32° |
| 2026-04-24 13:42 | 39.19966 | 125.67525 | 96 ft | 2 kts | 8° |
| 2026-04-24 13:43 | 39.19952 | 125.67525 | 96 ft | 0 kts | 344° |
| 2026-04-24 13:43 | 39.19947 | 125.67527 | 96 ft | 0 kts | 343° |
| 2026-04-24 13:44 | 39.19981 | 125.67513 | 96 ft | 15 kts | 343° |
| 2026-04-24 13:44 | 39.20149 | 125.67448 | 98 ft | 30 kts | 343° |
| 2026-04-24 13:44 | 39.20375 | 125.67359 | 97 ft | 37 kts | 343° |
| 2026-04-24 13:45 | 39.20609 | 125.67268 | 97 ft | 33 kts | 343° |
| 2026-04-24 13:45 | 39.21005 | 125.67114 | 99 ft | 26 kts | 343° |
| 2026-04-24 13:45 | 39.21173 | 125.67049 | 100 ft | 24 kts | 343° |
| 2026-04-24 13:46 | 39.21276 | 125.67008 | 101 ft | 22 kts | 343° |
| 2026-04-24 13:46 | 39.21469 | 125.66928 | 103 ft | 24 kts | 343° |
| 2026-04-24 13:46 | 39.21640 | 125.66863 | 104 ft | 26 kts | 343° |
| 2026-04-24 13:46 | 39.21823 | 125.66792 | 105 ft | 28 kts | 342° |
| 2026-04-24 13:47 | 39.22015 | 125.66712 | 104 ft | 28 kts | 340° |
| 2026-04-24 13:47 | 39.22061 | 125.66599 | 104 ft | 0 kts | 253° |
| 2026-04-24 13:47 | 39.22056 | 125.66579 | 104 ft | 4 kts | 253° |
| 2026-04-24 13:47 | 39.22045 | 125.66531 | 105 ft | 8 kts | 254° |
| 2026-04-24 13:48 | 39.21990 | 125.66465 | 105 ft | 15 kts | 181° |
| 2026-04-24 13:48 | 39.21905 | 125.66494 | 104 ft | 24 kts | 163° |
| 2026-04-24 13:48 | 39.21561 | 125.66631 | 105 ft | 82 kts | 163° |
| 2026-04-24 13:48 | 39.20464 | 125.67068 | 102 ft | 165 kts | 163° |
| 2026-04-24 13:49 | 39.19341 | 125.67516 | 769 ft | 172 kts | 163° |
| 2026-04-24 13:49 | 39.18185 | 125.67983 | 1403 ft | 186 kts | 163° |
| 2026-04-24 13:49 | 39.16914 | 125.68046 | 1729 ft | 194 kts | 199° |
| 2026-04-24 13:49 | 39.15773 | 125.67006 | 1818 ft | 216 kts | 238° |
| 2026-04-24 13:50 | 39.15313 | 125.65122 | 2135 ft | 230 kts | 273° |
| 2026-04-24 13:50 | 39.15785 | 125.63122 | 2522 ft | 243 kts | 306° |
| 2026-04-24 13:50 | 39.17043 | 125.61629 | 2665 ft | 266 kts | 333° |
| 2026-04-24 13:50 | 39.17907 | 125.61180 | 2641 ft | 270 kts | 347° |